Time;durP1;ratioP1;P1;durP2;ratioP2;P2;SDS_P1;SDS_P2;PMS_P1;PMS_P2;Temp;Humidity;BMP_temperature;BMP_pressure;BME280_temperature;BME280_humidity;BME280_pressure;Samples;Min_cycle;Max_cycle;Signal;HPM_P1;HPM_P2
2023/03/29 00:01:57;;;;;;;0.00;0.00;;;;;;;5.40;100.00;101337.97;10539498;28;20055;-79
2023/03/29 00:07:03;;;;;;;0.75;0.40;;;;;;;5.26;100.00;101329.56;10532789;28;20055;-79
2023/03/29 00:12:05;;;;;;;0.00;0.00;;;;;;;5.23;100.00;101329.41;10531755;28;20089;-78
2023/03/29 00:17:06;;;;;;;0.13;0.13;;;;;;;5.35;100.00;101308.75;10539425;28;20044;-78
2023/03/29 00:22:08;;;;;;;0.00;0.00;;;;;;;5.44;100.00;101303.25;10545701;28;20505;-79
2023/03/29 00:27:11;;;;;;;0.22;0.22;;;;;;;5.47;100.00;101298.31;10514546;28;20048;-79
2023/03/29 00:32:13;;;;;;;0.10;0.10;;;;;;;5.42;100.00;101298.06;10525587;28;20097;-79
2023/03/29 00:37:14;;;;;;;0.43;0.43;;;;;;;5.32;100.00;101304.38;10550590;28;20402;-79
2023/03/29 00:42:16;;;;;;;0.10;0.10;;;;;;;5.47;100.00;101304.28;10522837;28;20129;-79
2023/03/29 00:47:28;;;;;;;0.08;0.08;;;;;;;5.43;100.00;101306.59;10536731;28;20032;-79
2023/03/29 00:52:32;;;;;;;0.25;0.25;;;;;;;5.69;100.00;101311.44;10540774;28;20465;-81
2023/03/29 00:57:38;;;;;;;0.05;0.05;;;;;;;5.54;100.00;101296.16;10567632;28;20036;-80
2023/03/29 01:02:41;;;;;;;0.10;0.10;;;;;;;5.48;100.00;101287.25;10533587;28;20051;-81
2023/03/29 01:07:52;;;;;;;1.23;0.70;;;;;;;5.76;100.00;101273.38;10522876;28;20497;-82
2023/03/29 01:13:02;;;;;;;0.35;0.32;;;;;;;5.72;100.00;101280.88;10511547;28;20072;-82
2023/03/29 01:18:05;;;;;;;0.60;0.38;;;;;;;5.71;100.00;101276.56;10539131;28;20108;-82
2023/03/29 01:23:20;;;;;;;0.60;0.60;;;;;;;5.49;100.00;101271.13;10515477;28;20086;-81
2023/03/29 01:28:28;;;;;;;0.00;0.00;;;;;;;5.53;100.00;101248.38;10516223;28;20036;-81
2023/03/29 01:33:37;;;;;;;0.20;0.20;;;;;;;5.52;100.00;101230.41;10564154;28;20047;-81
2023/03/29 01:39:04;;;;;;;0.30;0.13;;;;;;;5.72;100.00;101229.75;10570685;28;20036;-83
2023/03/29 01:44:29;;;;;;;0.38;0.38;;;;;;;5.76;100.00;101212.91;10541274;28;20076;-81
2023/03/29 01:49:36;;;;;;;27.50;5.85;;;;;;;5.84;100.00;101221.84;10520659;28;20089;-81
2023/03/29 01:54:52;;;;;;;1.50;1.30;;;;;;;5.70;100.00;101233.91;10535005;28;20139;-81
2023/03/29 01:59:56;;;;;;;0.10;0.10;;;;;;;5.60;100.00;101238.47;10541833;28;20046;-81
2023/03/29 02:04:58;;;;;;;0.20;0.13;;;;;;;5.80;100.00;101226.72;10524323;28;20487;-81
2023/03/29 02:10:02;;;;;;;0.00;0.00;;;;;;;5.88;100.00;101225.41;10547508;28;20058;-80
2023/03/29 02:15:09;;;;;;;0.00;0.00;;;;;;;6.02;100.00;101234.69;10546390;28;20453;-79
2023/03/29 02:20:22;;;;;;;0.20;0.17;;;;;;;5.87;100.00;101223.66;10527353;28;20449;-80
2023/03/29 02:25:24;;;;;;;0.20;0.15;;;;;;;5.91;100.00;101204.22;10526687;28;20040;-80
2023/03/29 02:30:32;;;;;;;0.30;0.22;;;;;;;5.81;100.00;101213.13;10526308;28;20052;-80
2023/03/29 02:35:40;;;;;;;0.70;0.45;;;;;;;5.89;100.00;101209.28;10526180;28;20040;-79
2023/03/29 02:40:45;;;;;;;0.93;0.75;;;;;;;5.92;100.00;101204.31;10511998;28;20490;-80
2023/03/29 02:45:48;;;;;;;0.30;0.30;;;;;;;5.83;100.00;101199.63;10533809;28;20051;-80
2023/03/29 02:50:55;;;;;;;0.00;0.00;;;;;;;5.97;100.00;101189.19;10548153;28;20403;-81
2023/03/29 02:56:00;;;;;;;0.35;0.35;;;;;;;5.88;100.00;101184.50;10533772;28;20127;-79
2023/03/29 03:01:05;;;;;;;0.10;0.10;;;;;;;5.79;100.00;101184.94;10541515;28;20068;-79
2023/03/29 03:06:07;;;;;;;0.20;0.10;;;;;;;5.81;100.00;101187.56;10534186;28;20100;-80
2023/03/29 03:11:09;;;;;;;29.77;0.85;;;;;;;6.03;100.00;101172.50;10549147;28;20131;-80
2023/03/29 03:16:10;;;;;;;1.10;0.52;;;;;;;5.87;100.00;101178.53;10558087;28;20036;-80
2023/03/29 03:21:14;;;;;;;0.32;0.22;;;;;;;5.98;100.00;101168.81;10550487;28;20044;-80
2023/03/29 03:26:17;;;;;;;0.68;0.50;;;;;;;5.95;100.00;101168.66;10542122;28;20033;-80
2023/03/29 03:31:23;;;;;;;0.55;0.52;;;;;;;5.91;100.00;101171.00;10523349;28;20052;-80
2023/03/29 03:36:46;;;;;;;0.10;0.10;;;;;;;5.94;100.00;101163.47;10528996;28;20040;-80
2023/03/29 03:41:48;;;;;;;0.57;0.52;;;;;;;5.80;100.00;101150.00;10530680;28;20044;-79
2023/03/29 03:46:51;;;;;;;0.00;0.00;;;;;;;5.67;100.00;101117.84;10522669;28;20066;-79
2023/03/29 03:51:52;;;;;;;0.00;0.00;;;;;;;5.64;100.00;101071.69;10522717;28;20458;-80
2023/03/29 03:56:54;;;;;;;0.28;0.20;;;;;;;5.57;100.00;101052.63;10539977;28;20051;-80
2023/03/29 04:02:07;;;;;;;0.30;0.28;;;;;;;5.58;100.00;101023.69;10553116;28;20130;-81
2023/03/29 04:07:13;;;;;;;0.30;0.30;;;;;;;5.58;100.00;100994.72;10526372;28;20044;-81
2023/03/29 04:12:31;;;;;;;0.17;0.17;;;;;;;5.84;100.00;100985.72;10517443;28;20130;-81
2023/03/29 04:17:34;;;;;;;0.68;0.35;;;;;;;5.86;100.00;100977.31;10537644;28;20044;-81
2023/03/29 04:22:52;;;;;;;0.35;0.10;;;;;;;5.91;100.00;100966.41;10516120;28;20067;-81
2023/03/29 04:27:55;;;;;;;0.30;0.15;;;;;;;5.86;100.00;100954.31;10530056;28;20040;-80
2023/03/29 04:33:17;;;;;;;0.38;0.30;;;;;;;5.97;100.00;100949.69;10519908;28;20159;-79
2023/03/29 04:38:25;;;;;;;0.30;0.30;;;;;;;5.72;100.00;100948.53;10552456;28;20498;-80
2023/03/29 04:43:29;;;;;;;0.35;0.22;;;;;;;5.88;100.00;100942.44;10520674;28;20495;-79
2023/03/29 04:48:43;;;;;;;0.10;0.10;;;;;;;5.76;100.00;100941.03;10536428;28;20039;-81
2023/03/29 04:53:49;;;;;;;0.10;0.10;;;;;;;5.93;100.00;100932.44;10524074;28;20048;-80
2023/03/29 04:58:51;;;;;;;0.10;0.10;;;;;;;5.95;100.00;100918.03;10549468;28;20042;-80
2023/03/29 05:03:55;;;;;;;0.80;0.63;;;;;;;6.05;100.00;100913.38;10524991;28;20498;-80
2023/03/29 05:09:07;;;;;;;9.85;1.48;;;;;;;5.98;100.00;100920.75;10509187;28;20131;-80
2023/03/29 05:14:20;;;;;;;0.08;0.08;;;;;;;6.24;100.00;100909.94;10525441;28;20039;-80
2023/03/29 05:19:22;;;;;;;0.30;0.28;;;;;;;6.24;100.00;100907.38;10505851;28;20055;-81
2023/03/29 05:24:23;;;;;;;0.00;0.00;;;;;;;6.03;100.00;100903.94;10549144;28;20525;-80
2023/03/29 05:29:34;;;;;;;0.45;0.45;;;;;;;6.17;100.00;100901.13;10528219;28;20507;-79
2023/03/29 05:34:55;;;;;;;0.10;0.05;;;;;;;6.10;100.00;100894.88;10538871;28;20039;-80
2023/03/29 05:40:08;;;;;;;0.10;0.10;;;;;;;6.30;100.00;100902.53;10545643;28;20051;-80
2023/03/29 05:45:32;;;;;;;1.60;1.50;;;;;;;6.13;100.00;100912.03;10520235;28;20048;-80
2023/03/29 05:50:36;;;;;;;0.10;0.10;;;;;;;6.39;100.00;100914.84;10538131;28;20422;-79
2023/03/29 05:55:40;;;;;;;0.03;0.03;;;;;;;6.28;100.00;100928.06;10526719;28;20044;-81
2023/03/29 06:00:45;;;;;;;1.05;0.47;;;;;;;6.25;100.00;100934.72;10508233;28;20048;-81
2023/03/29 06:06:02;;;;;;;0.20;0.20;;;;;;;6.23;100.00;100932.06;10518571;28;20495;-79
2023/03/29 06:11:07;;;;;;;0.20;0.17;;;;;;;6.48;100.00;100938.28;10522579;28;20042;-82
2023/03/29 06:16:28;;;;;;;0.00;0.00;;;;;;;6.30;100.00;100949.44;10536851;28;20131;-82
2023/03/29 06:21:30;;;;;;;0.32;0.28;;;;;;;6.43;100.00;100939.78;10536415;28;20048;-82
2023/03/29 06:26:34;;;;;;;0.65;0.28;;;;;;;6.46;100.00;100952.69;10537723;28;20040;-82
2023/03/29 06:31:35;;;;;;;0.20;0.20;;;;;;;6.73;100.00;100939.31;10545007;28;20048;-82
2023/03/29 06:36:40;;;;;;;0.00;0.00;;;;;;;6.65;100.00;100944.09;10520575;28;20085;-82
2023/03/29 06:41:42;;;;;;;0.55;0.50;;;;;;;6.82;100.00;100961.06;10553975;28;20394;-82
2023/03/29 06:46:57;;;;;;;2.45;0.98;;;;;;;6.89;100.00;100957.06;10529216;28;20036;-81
2023/03/29 06:51:59;;;;;;;2.70;2.30;;;;;;;6.95;100.00;100972.72;10527220;28;20040;-82
2023/03/29 06:57:02;;;;;;;1.52;0.77;;;;;;;7.12;100.00;100975.06;10536854;28;20395;-82
2023/03/29 07:02:08;;;;;;;0.40;0.10;;;;;;;7.03;100.00;101001.19;10546049;28;20131;-83
2023/03/29 07:07:58;;;;;;;0.10;0.10;;;;;;;7.32;100.00;101016.91;10530732;28;20236;-82
2023/03/29 07:13:19;;;;;;;0.00;0.00;;;;;;;7.28;100.00;101032.97;10537522;28;20058;-83
2023/03/29 07:18:23;;;;;;;0.35;0.35;;;;;;;7.56;100.00;101034.94;10511982;28;20050;-82
2023/03/29 07:23:25;;;;;;;2.08;1.58;;;;;;;7.67;100.00;101055.03;10517522;28;20032;-80
2023/03/29 07:28:27;;;;;;;0.25;0.20;;;;;;;7.83;100.00;101059.97;10527229;28;20039;-80
2023/03/29 07:33:33;;;;;;;0.03;0.03;;;;;;;7.94;100.00;101068.94;10565952;28;20456;-80
2023/03/29 07:38:38;;;;;;;0.47;0.45;;;;;;;7.84;100.00;101063.41;10530669;28;20054;-80
2023/03/29 07:43:45;;;;;;;0.20;0.20;;;;;;;7.75;100.00;101057.09;10529438;28;20150;-80
2023/03/29 07:48:51;;;;;;;0.10;0.10;;;;;;;7.68;100.00;101043.97;10545588;28;20394;-81
2023/03/29 07:53:53;;;;;;;0.30;0.30;;;;;;;7.75;100.00;101030.56;10554322;28;20044;-81
2023/03/29 07:59:10;;;;;;;0.20;0.20;;;;;;;7.91;100.00;101027.81;10523719;28;20453;-80
2023/03/29 08:04:13;;;;;;;0.35;0.32;;;;;;;8.04;100.00;101043.66;10532622;28;20048;-80
2023/03/29 08:09:33;;;;;;;;;;;;;;;8.21;100.00;101060.59;10523097;28;20040;-80
2023/03/29 08:14:35;;;;;;;1.27;0.55;;;;;;;8.35;100.00;101070.50;10521990;28;20297;-80
2023/03/29 08:19:47;;;;;;;0.60;0.57;;;;;;;8.44;100.00;101081.13;10503190;28;20044;-80
2023/03/29 08:24:55;;;;;;;0.00;0.00;;;;;;;8.36;100.00;101087.66;10535441;28;20072;-80
2023/03/29 08:30:01;;;;;;;0.13;0.13;;;;;;;8.69;100.00;101088.06;10516224;28;20040;-79
2023/03/29 08:35:08;;;;;;;0.75;0.57;;;;;;;8.61;100.00;101109.13;10521176;28;20052;-80
2023/03/29 08:40:23;;;;;;;0.93;0.85;;;;;;;9.02;100.00;101114.91;10515735;28;20059;-79
2023/03/29 08:45:37;;;;;;;0.30;0.20;;;;;;;9.11;100.00;101117.81;10510250;28;20512;-80
2023/03/29 08:50:48;;;;;;;2.95;0.90;;;;;;;8.95;100.00;101128.38;10539395;28;20040;-80
2023/03/29 08:55:52;;;;;;;0.40;0.20;;;;;;;9.31;100.00;101115.06;10520423;28;20135;-80
2023/03/29 09:01:15;;;;;;;1.00;0.98;;;;;;;9.20;100.00;101117.25;10559511;28;20495;-80
2023/03/29 09:06:23;;;;;;;1.15;0.52;;;;;;;9.42;100.00;101124.00;10529429;28;20048;-79
2023/03/29 09:11:50;;;;;;;0.15;0.15;;;;;;;9.83;100.00;101114.22;10507301;28;20131;-79
2023/03/29 09:17:05;;;;;;;0.17;0.17;;;;;;;9.95;100.00;101111.16;10535273;28;20114;-79
2023/03/29 09:22:52;;;;;;;0.50;0.17;;;;;;;10.14;100.00;101135.78;10534937;28;20101;-81
2023/03/29 09:28:11;;;;;;;0.55;0.50;;;;;;;9.91;100.00;101144.47;10500389;28;20086;-82
2023/03/29 09:33:35;;;;;;;0.85;0.68;;;;;;;10.25;100.00;101160.97;10521304;28;20084;-82
2023/03/29 09:38:49;;;;;;;0.63;0.45;;;;;;;10.61;100.00;101155.28;10534476;28;20605;-82
2023/03/29 09:43:55;;;;;;;0.98;0.30;;;;;;;10.28;100.00;101135.34;10531081;28;20495;-81
2023/03/29 09:49:09;;;;;;;0.45;0.20;;;;;;;10.07;100.00;101126.13;10509884;28;20044;-81
2023/03/29 09:54:11;;;;;;;0.98;0.73;;;;;;;10.77;100.00;101108.47;10523513;28;20499;-78
2023/03/29 09:59:45;;;;;;;0.63;0.50;;;;;;;10.49;100.00;101081.06;10529996;28;20066;-79
2023/03/29 10:05:02;;;;;;;0.25;0.25;;;;;;;10.00;100.00;101049.53;10549471;28;20052;-78
2023/03/29 10:10:09;;;;;;;3.75;1.58;;;;;;;10.13;100.00;101020.75;10513170;28;20033;-78
2023/03/29 10:15:16;;;;;;;0.65;0.55;;;;;;;10.15;100.00;101005.34;10553442;27;20513;-78
2023/03/29 10:20:33;;;;;;;0.90;0.75;;;;;;;12.38;100.00;100991.09;10529300;28;20051;-79
2023/03/29 10:25:40;;;;;;;0.20;0.20;;;;;;;11.43;100.00;101050.03;10531088;28;20039;-78
2023/03/29 10:30:51;;;;;;;0.22;0.22;;;;;;;11.10;100.00;101040.63;10523274;28;20052;-78
2023/03/29 10:35:56;;;;;;;1.00;0.50;;;;;;;11.63;100.00;101016.13;10520789;28;20044;-79
2023/03/29 10:41:11;;;;;;;1.30;0.80;;;;;;;11.05;100.00;100997.50;10529122;28;20048;-78
2023/03/29 10:46:40;;;;;;;0.55;0.40;;;;;;;11.23;100.00;100966.16;10510576;28;20040;-78
2023/03/29 10:51:48;;;;;;;6.07;1.38;;;;;;;11.39;100.00;100944.19;10512920;28;20499;-79
2023/03/29 10:56:56;;;;;;;1.65;1.15;;;;;;;13.16;100.00;100926.09;10537041;28;20044;-79
2023/03/29 11:02:14;;;;;;;0.82;0.47;;;;;;;12.60;100.00;100962.19;10521770;28;20288;-78
2023/03/29 11:07:32;;;;;;;0.32;0.22;;;;;;;12.21;100.00;100964.03;10526502;28;20067;-79
2023/03/29 11:13:16;;;;;;;0.98;0.75;;;;;;;11.75;100.00;100961.34;10526089;28;20072;-78
2023/03/29 11:18:46;;;;;;;0.30;0.30;;;;;;;11.98;100.00;100953.25;10527992;28;20396;-82
2023/03/29 11:24:25;;;;;;;0.80;0.67;;;;;;;11.87;100.00;100955.56;10507832;28;20048;-81
2023/03/29 11:29:40;;;;;;;2.15;0.43;;;;;;;12.03;100.00;100962.81;10516558;28;20471;-81
2023/03/29 11:35:00;;;;;;;0.75;0.63;;;;;;;11.60;100.00;100967.00;10520424;28;20049;-80
2023/03/29 11:40:14;;;;;;;;;;;;;;;11.83;100.00;100927.94;10539461;28;20040;-81
2023/03/29 11:45:26;;;;;;;3.45;0.88;;;;;;;12.03;100.00;100918.91;10511349;28;20398;-80
2023/03/29 11:50:56;;;;;;;0.75;0.52;;;;;;;11.52;100.00;100880.81;10528361;28;20035;-80
2023/03/29 11:56:10;;;;;;;0.50;0.40;;;;;;;12.27;100.00;100868.56;10574288;27;20044;-81
2023/03/29 12:01:19;;;;;;;0.68;0.63;;;;;;;12.35;100.00;100869.59;10511200;28;20044;-80
2023/03/29 12:06:33;;;;;;;0.20;0.17;;;;;;;12.03;100.00;100846.59;10533285;28;20138;-80
2023/03/29 12:11:56;;;;;;;0.43;0.43;;;;;;;11.85;100.00;100860.00;10551939;28;20044;-80
2023/03/29 12:17:01;;;;;;;0.45;0.38;;;;;;;11.41;100.00;100842.78;10518551;28;20047;-80
2023/03/29 12:22:06;;;;;;;1.65;0.60;;;;;;;11.40;100.00;100835.00;10547261;28;20040;-80
2023/03/29 12:27:37;;;;;;;0.32;0.28;;;;;;;11.50;100.00;100843.81;10531783;28;20037;-81
2023/03/29 12:32:52;;;;;;;1.02;0.77;;;;;;;11.55;100.00;100839.63;10554964;28;20048;-81
2023/03/29 12:38:21;;;;;;;1.08;0.63;;;;;;;11.77;100.00;100820.25;10552102;28;20494;-81
2023/03/29 12:43:47;;;;;;;0.38;0.38;;;;;;;11.27;100.00;100845.03;10522012;28;20388;-81
2023/03/29 12:49:34;;;;;;;0.43;0.43;;;;;;;11.54;100.00;100817.22;10508534;28;20040;-81
2023/03/29 12:54:36;;;;;;;1.92;0.88;;;;;;;11.64;100.00;100787.31;10528764;28;20035;-81
2023/03/29 12:59:43;;;;;;;1.30;0.60;;;;;;;11.68;100.00;100804.63;10530364;28;20044;-80
2023/03/29 13:04:50;;;;;;;1.67;0.82;;;;;;;12.00;100.00;100797.50;10548985;28;20044;-80
2023/03/29 13:10:07;;;;;;;0.55;0.40;;;;;;;11.70;100.00;100806.38;10548293;28;20399;-80
2023/03/29 13:15:18;;;;;;;0.57;0.47;;;;;;;12.23;100.00;100789.31;10530780;28;20056;-80
2023/03/29 13:20:38;;;;;;;0.65;0.57;;;;;;;11.88;100.00;100794.66;10520014;28;20047;-82
2023/03/29 13:25:57;;;;;;;1.42;0.90;;;;;;;11.92;100.00;100783.56;10544055;28;20236;-81
2023/03/29 13:31:28;;;;;;;1.90;0.77;;;;;;;11.76;100.00;100779.84;10534210;28;20514;-80
2023/03/29 13:36:45;;;;;;;0.65;0.60;;;;;;;12.21;100.00;100775.50;10544267;28;20048;-82
2023/03/29 13:41:51;;;;;;;0.55;0.40;;;;;;;12.79;100.00;100801.41;10513853;28;20040;-81
2023/03/29 13:47:12;;;;;;;0.60;0.55;;;;;;;12.64;100.00;100785.66;10542761;28;20070;-79
2023/03/29 13:52:33;;;;;;;0.50;0.50;;;;;;;12.67;100.00;100780.53;10528925;28;20043;-79
2023/03/29 13:57:51;;;;;;;0.63;0.50;;;;;;;12.96;100.00;100773.19;10574225;28;20116;-79
2023/03/29 14:03:02;;;;;;;0.80;0.70;;;;;;;13.29;100.00;100792.59;10532763;28;20562;-79
2023/03/29 14:08:15;;;;;;;0.47;0.28;;;;;;;13.54;100.00;100802.44;10546948;28;20039;-79
2023/03/29 14:13:21;;;;;;;0.55;0.52;;;;;;;13.26;100.00;100818.44;10554096;28;20052;-78
2023/03/29 14:18:26;;;;;;;0.63;0.38;;;;;;;13.14;100.00;100823.47;10570262;28;20179;-79
2023/03/29 14:23:31;;;;;;;1.00;0.63;;;;;;;14.36;100.00;100790.31;10571268;28;20467;-79
2023/03/29 14:28:33;;;;;;;1.13;0.60;;;;;;;13.62;100.00;100822.38;10569458;28;20069;-80
2023/03/29 14:33:36;;;;;;;1.38;0.50;;;;;;;13.72;100.00;100825.09;10569360;28;20143;-79
2023/03/29 14:38:38;;;;;;;1.02;0.57;;;;;;;13.72;100.00;100818.16;10568836;28;20096;-79
2023/03/29 14:43:42;;;;;;;3.13;0.82;;;;;;;13.69;100.00;100827.63;10587401;28;20047;-79
2023/03/29 14:48:44;;;;;;;0.20;0.20;;;;;;;13.63;100.00;100818.94;10553495;28;20047;-80
2023/03/29 14:53:47;;;;;;;1.02;0.60;;;;;;;13.78;100.00;100827.75;10526430;28;20067;-79
2023/03/29 14:58:48;;;;;;;1.33;0.85;;;;;;;13.98;100.00;100824.47;10565764;28;20043;-81
2023/03/29 15:04:03;;;;;;;1.33;1.23;;;;;;;14.17;100.00;100829.03;10523828;28;20126;-81
2023/03/29 15:09:13;;;;;;;0.28;0.28;;;;;;;14.48;100.00;100816.34;10542551;28;20067;-82
2023/03/29 15:14:17;;;;;;;0.13;0.13;;;;;;;13.79;100.00;100834.66;10559449;28;20055;-82
2023/03/29 15:19:21;;;;;;;0.50;0.40;;;;;;;14.27;100.00;100840.34;10528426;28;20048;-81
2023/03/29 15:24:31;;;;;;;0.22;0.17;;;;;;;14.11;100.00;100813.41;10521973;28;20093;-81
2023/03/29 15:29:35;;;;;;;0.75;0.57;;;;;;;14.22;100.00;100809.19;10530006;28;20097;-82
2023/03/29 15:34:37;;;;;;;0.60;0.50;;;;;;;14.23;100.00;100810.94;10539597;28;20525;-81
2023/03/29 15:39:42;;;;;;;0.73;0.55;;;;;;;14.20;100.00;100794.50;10525254;28;20042;-81
2023/03/29 15:44:44;;;;;;;0.57;0.35;;;;;;;14.26;100.00;100794.53;10546615;28;20136;-82
2023/03/29 15:49:46;;;;;;;6.45;0.50;;;;;;;13.90;100.00;100786.44;10512870;28;20040;-79
2023/03/29 15:54:48;;;;;;;0.35;0.22;;;;;;;14.34;100.00;100792.00;10530514;28;20040;-79
2023/03/29 15:59:49;;;;;;;0.50;0.47;;;;;;;14.69;100.00;100794.06;10533779;28;20403;-79
2023/03/29 16:04:52;;;;;;;2.05;1.00;;;;;;;14.83;100.00;100808.00;10527451;28;20051;-79
2023/03/29 16:09:56;;;;;;;1.90;0.60;;;;;;;15.01;100.00;100811.53;10540574;28;20056;-79
2023/03/29 16:14:58;;;;;;;1.15;0.98;;;;;;;15.08;100.00;100792.56;10538978;28;20119;-79
2023/03/29 16:20:00;;;;;;;0.30;0.30;;;;;;;14.77;100.00;100799.28;10539622;28;20070;-79
2023/03/29 16:25:12;;;;;;;0.30;0.30;;;;;;;14.53;100.00;100793.03;10538840;28;20383;-79
2023/03/29 16:30:14;;;;;;;0.32;0.32;;;;;;;14.64;100.00;100774.97;10512268;28;20040;-79
2023/03/29 16:35:26;;;;;;;0.45;0.13;;;;;;;14.51;100.00;100776.63;10544817;28;20052;-79
2023/03/29 16:40:28;;;;;;;2.30;2.08;;;;;;;14.65;100.00;100756.84;10550009;28;20078;-79
2023/03/29 16:45:29;;;;;;;1.73;1.38;;;;;;;14.80;100.00;100758.69;10536971;28;20073;-79
2023/03/29 16:50:31;;;;;;;1.38;1.08;;;;;;;14.76;100.00;100762.13;10539061;28;20089;-78
2023/03/29 16:55:33;;;;;;;0.32;0.32;;;;;;;14.60;100.00;100756.81;10542090;28;20040;-79
2023/03/29 17:00:35;;;;;;;1.30;0.73;;;;;;;14.70;100.00;100752.56;10543680;28;20036;-79
2023/03/29 17:05:40;;;;;;;0.35;0.22;;;;;;;14.58;100.00;100750.75;10521456;28;20060;-79
2023/03/29 17:10:42;;;;;;;0.60;0.40;;;;;;;14.42;100.00;100728.16;10529421;28;20071;-79
2023/03/29 17:15:44;;;;;;;0.68;0.68;;;;;;;14.36;100.00;100720.34;10561679;28;20036;-79
2023/03/29 17:20:46;;;;;;;0.40;0.32;;;;;;;14.21;100.00;100698.63;10544913;28;20121;-78
2023/03/29 17:25:47;;;;;;;0.32;0.30;;;;;;;14.22;100.00;100702.97;10551913;28;20036;-79
2023/03/29 17:30:49;;;;;;;0.30;0.28;;;;;;;14.03;100.00;100688.16;10530513;28;20379;-78
2023/03/29 17:35:51;;;;;;;1.45;0.70;;;;;;;13.94;100.00;100663.91;10535159;28;20426;-79
2023/03/29 17:40:54;;;;;;;0.52;0.52;;;;;;;13.93;100.00;100625.91;10547638;28;20052;-79
2023/03/29 17:45:55;;;;;;;0.68;0.55;;;;;;;14.11;100.00;100624.31;10563039;28;20040;-79
2023/03/29 17:50:57;;;;;;;1.15;0.65;;;;;;;14.03;100.00;100642.38;10538546;28;20044;-79
2023/03/29 17:55:59;;;;;;;0.10;0.10;;;;;;;14.01;100.00;100644.06;10519680;28;20054;-79
2023/03/29 18:01:12;;;;;;;0.40;0.30;;;;;;;14.11;100.00;100642.44;10540074;28;20032;-79
2023/03/29 18:06:19;;;;;;;0.80;0.43;;;;;;;13.98;100.00;100610.41;10532210;28;20048;-78
2023/03/29 18:11:23;;;;;;;0.52;0.20;;;;;;;13.96;100.00;100602.59;10539661;28;20139;-78
2023/03/29 18:16:25;;;;;;;2.33;1.40;;;;;;;13.88;100.00;100606.00;10554711;28;20036;-78
2023/03/29 18:21:27;;;;;;;1.75;1.55;;;;;;;13.76;100.00;100601.59;10543720;28;20047;-78
2023/03/29 18:26:28;;;;;;;1.75;1.20;;;;;;;13.61;100.00;100582.50;10523707;28;20058;-79
2023/03/29 18:31:30;;;;;;;0.77;0.40;;;;;;;13.47;100.00;100568.56;10528048;28;20044;-79
2023/03/29 18:36:31;;;;;;;0.30;0.30;;;;;;;13.50;100.00;100578.97;10530294;28;20814;-79
2023/03/29 18:41:36;;;;;;;0.55;0.40;;;;;;;13.66;100.00;100572.19;10521073;28;20036;-78
2023/03/29 18:46:37;;;;;;;0.85;0.43;;;;;;;13.63;100.00;100575.59;10513001;28;20036;-79
2023/03/29 18:51:40;;;;;;;0.82;0.50;;;;;;;13.49;100.00;100583.25;10550570;28;20440;-79
2023/03/29 18:56:42;;;;;;;1.73;1.25;;;;;;;13.62;100.00;100578.19;10540065;28;20044;-78
2023/03/29 19:01:47;;;;;;;1.42;0.75;;;;;;;13.42;100.00;100567.66;10536021;28;20098;-79
2023/03/29 19:06:48;;;;;;;1.83;1.33;;;;;;;13.51;100.00;100570.34;10517972;28;20097;-79
2023/03/29 19:11:50;;;;;;;1.75;1.20;;;;;;;13.58;100.00;100572.13;10521346;28;20048;-79
2023/03/29 19:16:52;;;;;;;3.65;1.40;;;;;;;13.74;100.00;100567.03;10545098;28;20233;-79
2023/03/29 19:21:54;;;;;;;2.10;0.90;;;;;;;13.77;100.00;100578.31;10532548;28;20079;-78
2023/03/29 19:27:00;;;;;;;0.73;0.50;;;;;;;13.50;100.00;100563.44;10532381;28;20082;-79
2023/03/29 19:32:05;;;;;;;2.58;1.27;;;;;;;13.43;100.00;100569.41;10516134;28;20594;-79
2023/03/29 19:37:07;;;;;;;7.07;1.98;;;;;;;13.25;100.00;100558.00;10522935;28;20403;-80
2023/03/29 19:42:09;;;;;;;3.55;0.98;;;;;;;13.36;100.00;100539.13;10547608;28;20035;-79
2023/03/29 19:47:11;;;;;;;0.70;0.22;;;;;;;13.10;100.00;100539.75;10525852;28;20044;-80
2023/03/29 19:52:12;;;;;;;0.88;0.38;;;;;;;12.72;100.00;100516.94;10523649;28;20491;-79
2023/03/29 19:57:15;;;;;;;0.35;0.32;;;;;;;13.02;100.00;100512.09;10541234;28;20073;-80
2023/03/29 20:02:16;;;;;;;0.45;0.30;;;;;;;12.81;100.00;100502.38;10548305;28;20044;-79
2023/03/29 20:07:18;;;;;;;0.90;0.43;;;;;;;12.79;100.00;100486.03;10556777;28;20044;-79
2023/03/29 20:12:20;;;;;;;2.08;0.88;;;;;;;12.87;100.00;100467.13;10559511;28;20040;-80
2023/03/29 20:17:22;;;;;;;1.13;0.85;;;;;;;12.80;100.00;100455.84;10553190;28;20101;-80
2023/03/29 20:22:24;;;;;;;0.30;0.30;;;;;;;12.93;100.00;100444.75;10521091;28;20059;-79
2023/03/29 20:27:28;;;;;;;0.82;0.47;;;;;;;12.78;100.00;100431.69;10521387;28;20054;-79
2023/03/29 20:32:29;;;;;;;0.82;0.43;;;;;;;13.00;100.00;100407.75;10521160;28;20483;-79
2023/03/29 20:37:31;;;;;;;0.40;0.35;;;;;;;13.13;100.00;100392.38;10538588;28;20411;-79
2023/03/29 20:42:35;;;;;;;1.40;0.43;;;;;;;13.08;100.00;100383.69;10520143;28;20058;-79
2023/03/29 20:47:41;;;;;;;0.32;0.32;;;;;;;13.18;100.00;100365.66;10537321;28;20060;-79
2023/03/29 20:52:43;;;;;;;0.75;0.35;;;;;;;13.20;100.00;100347.56;10520077;28;20112;-79
2023/03/29 20:57:45;;;;;;;0.43;0.25;;;;;;;13.22;100.00;100351.00;10518595;28;20051;-79
2023/03/29 21:02:46;;;;;;;0.38;0.25;;;;;;;13.15;100.00;100329.44;10538016;28;20044;-79
2023/03/29 21:07:48;;;;;;;0.40;0.20;;;;;;;13.43;100.00;100315.81;10472910;28;1051538;-79
2023/03/29 21:12:53;;;;;;;0.10;0.10;;;;;;;13.61;100.00;100302.94;10538207;28;20051;-80
2023/03/29 21:17:55;;;;;;;0.60;0.32;;;;;;;13.70;100.00;100311.59;10546041;28;20036;-79
2023/03/29 21:22:56;;;;;;;0.47;0.43;;;;;;;13.54;100.00;100316.72;10526698;28;20052;-79
2023/03/29 21:27:58;;;;;;;0.93;0.28;;;;;;;13.18;100.00;100302.72;10520746;28;20048;-81
2023/03/29 21:33:00;;;;;;;0.85;0.68;;;;;;;13.15;100.00;100276.81;10516909;28;20492;-81
2023/03/29 21:38:02;;;;;;;1.05;0.40;;;;;;;13.04;100.00;100255.22;10506715;28;20086;-80
2023/03/29 21:43:04;;;;;;;0.57;0.52;;;;;;;12.98;100.00;100254.34;10535204;28;20403;-80
2023/03/29 21:48:06;;;;;;;0.13;0.13;;;;;;;12.66;100.00;100234.31;10530771;28;20106;-79
2023/03/29 21:53:09;;;;;;;3.70;2.10;;;;;;;12.85;100.00;100224.09;10520048;28;20467;-80
2023/03/29 21:58:10;;;;;;;0.30;0.20;;;;;;;12.96;100.00;100224.16;10554642;28;20040;-80
2023/03/29 22:03:13;;;;;;;0.13;0.10;;;;;;;12.76;100.00;100231.81;10542033;28;20044;-80
2023/03/29 22:08:15;;;;;;;0.00;0.00;;;;;;;12.53;100.00;100227.34;10527844;28;20032;-81
2023/03/29 22:13:17;;;;;;;0.25;0.22;;;;;;;12.83;100.00;100231.00;10524789;28;20048;-82
2023/03/29 22:18:19;;;;;;;0.30;0.28;;;;;;;12.64;100.00;100222.25;10531237;28;20050;-81
2023/03/29 22:23:23;;;;;;;1.05;0.52;;;;;;;12.96;100.00;100250.88;10502253;28;20051;-81
2023/03/29 22:28:25;;;;;;;0.43;0.22;;;;;;;13.12;100.00;100253.56;10560577;28;20043;-81
2023/03/29 22:33:26;;;;;;;1.85;0.98;;;;;;;12.92;100.00;100259.47;10524601;28;20548;-81
2023/03/29 22:38:31;;;;;;;0.45;0.40;;;;;;;12.92;100.00;100264.63;10514667;28;20047;-81
2023/03/29 22:43:35;;;;;;;0.00;0.00;;;;;;;13.06;100.00;100269.88;10535050;28;20044;-82
2023/03/29 22:48:38;;;;;;;0.20;0.20;;;;;;;13.00;100.00;100268.13;10537100;28;20063;-82
2023/03/29 22:53:40;;;;;;;0.20;0.20;;;;;;;12.90;100.00;100297.38;10541301;28;20040;-81
2023/03/29 22:58:42;;;;;;;0.00;0.00;;;;;;;13.12;100.00;100297.53;10520545;28;20041;-80
2023/03/29 23:03:44;;;;;;;0.60;0.57;;;;;;;12.84;100.00;100302.53;10510917;28;20036;-80
2023/03/29 23:08:45;;;;;;;0.00;0.00;;;;;;;13.01;100.00;100295.72;10563599;28;20080;-81
2023/03/29 23:13:51;;;;;;;0.00;0.00;;;;;;;13.18;100.00;100324.25;10566517;27;20135;-81
2023/03/29 23:18:53;;;;;;;0.15;0.10;;;;;;;13.11;100.00;100342.34;10529334;28;20040;-81
2023/03/29 23:23:54;;;;;;;0.90;0.25;;;;;;;13.36;100.00;100326.97;10521241;28;20518;-82